Time;durP1;ratioP1;P1;durP2;ratioP2;P2;SDS_P1;SDS_P2;PMS_P1;PMS_P2;Temp;Humidity;BMP_temperature;BMP_pressure;BME280_temperature;BME280_humidity;BME280_pressure;Samples;Min_cycle;Max_cycle;Signal;HPM_P1;HPM_P2
2021/10/15 00:01:18;;;;;;;0.65;0.47;;;;;;;2.89;100.00;97968.06;6277711;22;20359;-80
2021/10/15 00:03:44;;;;;;;2.78;1.02;;;;;;;2.92;100.00;97960.09;6252132;22;20442;-80
2021/10/15 00:06:09;;;;;;;0.28;0.28;;;;;;;2.91;100.00;97954.81;6252182;22;20007;-81
2021/10/15 00:08:35;;;;;;;0.68;0.68;;;;;;;3.12;100.00;97975.41;6251759;22;20011;-81
2021/10/15 00:11:00;;;;;;;1.08;0.77;;;;;;;3.09;100.00;97975.50;6252095;22;20007;-80
2021/10/15 00:13:26;;;;;;;0.50;0.50;;;;;;;3.07;100.00;97982.59;6277754;22;20406;-80
2021/10/15 00:15:52;;;;;;;0.45;0.45;;;;;;;3.22;100.00;98006.88;6252187;22;20443;-80
2021/10/15 00:18:17;;;;;;;2.00;0.65;;;;;;;2.83;100.00;97917.19;6251848;22;20056;-80
2021/10/15 00:20:44;;;;;;;0.20;0.20;;;;;;;3.11;100.00;97976.31;6277658;22;20006;-80
2021/10/15 00:23:09;;;;;;;0.40;0.40;;;;;;;3.09;100.00;97980.78;6278353;22;20328;-80
2021/10/15 00:25:35;;;;;;;1.85;1.50;;;;;;;3.02;100.00;97960.69;6277489;22;20008;-81
2021/10/15 00:28:00;;;;;;;0.60;0.60;;;;;;;3.03;100.00;97965.06;6252140;22;20402;-80
2021/10/15 00:30:26;;;;;;;0.40;0.40;;;;;;;3.05;100.00;97957.97;6306326;22;20009;-81
2021/10/15 00:32:51;;;;;;;0.63;0.47;;;;;;;2.90;100.00;97937.22;6279608;22;20003;-80
2021/10/15 00:35:17;;;;;;;0.55;0.55;;;;;;;3.13;100.00;97966.59;6279464;22;20010;-80
2021/10/15 00:37:44;;;;;;;2.25;1.00;;;;;;;3.14;100.00;97963.88;6279535;22;20003;-80
2021/10/15 00:40:11;;;;;;;0.40;0.40;;;;;;;3.15;100.00;97959.47;6280002;22;19995;-80
2021/10/15 00:42:37;;;;;;;1.42;1.33;;;;;;;3.05;100.00;97934.19;6253957;22;20450;-80
2021/10/15 00:45:03;;;;;;;1.42;1.33;;;;;;;3.17;100.00;97957.66;6280054;22;20014;-80
2021/10/15 00:47:29;;;;;;;0.85;0.60;;;;;;;2.94;100.00;97923.91;6279526;22;20362;-80
2021/10/15 00:49:54;;;;;;;0.88;0.60;;;;;;;3.08;100.00;97948.19;6253477;22;20000;-80
2021/10/15 00:52:20;;;;;;;0.65;0.65;;;;;;;3.24;100.00;97983.03;6253599;22;20006;-80
2021/10/15 00:54:46;;;;;;;0.65;0.65;;;;;;;3.16;100.00;97948.00;6253217;22;20015;-79
2021/10/15 00:57:14;;;;;;;1.67;1.58;;;;;;;3.04;100.00;97921.91;6253584;22;20003;-80
2021/10/15 00:59:40;;;;;;;0.82;0.65;;;;;;;3.35;100.00;97965.13;6253676;22;20081;-80
2021/10/15 01:02:07;;;;;;;1.77;1.55;;;;;;;3.15;100.00;97938.34;6279042;22;20003;-80
2021/10/15 01:04:34;;;;;;;1.98;1.77;;;;;;;2.95;100.00;97901.00;6278846;22;20007;-80
2021/10/15 01:07:00;;;;;;;1.08;0.82;;;;;;;3.28;100.00;97955.59;6279318;22;20006;-80
2021/10/15 01:09:25;;;;;;;1.33;1.23;;;;;;;3.12;100.00;97927.84;6253620;22;20007;-80
2021/10/15 01:11:51;;;;;;;1.08;1.08;;;;;;;3.30;100.00;97953.78;6253390;22;20354;-80
2021/10/15 01:14:18;;;;;;;3.13;1.50;;;;;;;3.25;100.00;97945.13;6253559;22;20419;-80
2021/10/15 01:16:44;;;;;;;1.08;0.93;;;;;;;3.17;100.00;97916.25;6253207;22;20007;-80
2021/10/15 01:19:11;;;;;;;1.67;1.25;;;;;;;3.17;100.00;97912.72;6279282;22;20045;-81
2021/10/15 01:21:36;;;;;;;4.43;1.45;;;;;;;2.97;100.00;97881.56;6279236;22;20435;-81
2021/10/15 01:24:02;;;;;;;0.90;0.90;;;;;;;3.35;100.00;97945.75;6253337;22;20018;-80
2021/10/15 01:26:28;;;;;;;1.48;1.35;;;;;;;2.96;100.00;97879.81;6253165;22;20017;-80
2021/10/15 01:28:55;;;;;;;1.63;1.33;;;;;;;3.25;100.00;97926.63;6253141;22;20084;-80
2021/10/15 01:31:21;;;;;;;2.17;1.98;;;;;;;3.24;100.00;97912.53;6253972;22;20053;-80
2021/10/15 01:33:47;;;;;;;1.63;1.33;;;;;;;3.30;100.00;97937.91;6252992;22;20088;-81
2021/10/15 01:36:12;;;;;;;0.75;0.75;;;;;;;3.00;100.00;97897.34;6253144;22;20007;-80
2021/10/15 01:38:38;;;;;;;1.50;1.40;;;;;;;3.11;100.00;97904.97;6279102;22;20003;-80
2021/10/15 01:41:04;;;;;;;0.85;0.85;;;;;;;3.35;100.00;97936.03;6278564;22;20003;-80
2021/10/15 01:43:30;;;;;;;4.13;1.70;;;;;;;3.33;100.00;97929.03;6253180;22;20060;-80
2021/10/15 01:45:57;;;;;;;1.65;1.55;;;;;;;3.27;100.00;97919.50;6253013;22;20069;-80
2021/10/15 01:48:23;;;;;;;3.78;2.72;;;;;;;3.38;100.00;97929.81;6252805;22;19996;-80
2021/10/15 01:50:49;;;;;;;2.80;2.35;;;;;;;3.27;100.00;97901.00;6278564;22;20351;-81
2021/10/15 01:53:15;;;;;;;14.43;1.65;;;;;;;3.28;100.00;97900.09;6253172;22;20006;-81
2021/10/15 01:55:41;;;;;;;3.63;2.50;;;;;;;3.26;100.00;97907.22;6252898;22;20019;-79
2021/10/15 01:58:07;;;;;;;2.90;2.50;;;;;;;3.26;100.00;97910.69;6252683;22;20003;-80
2021/10/15 02:00:33;;;;;;;1.95;1.75;;;;;;;3.16;100.00;97898.66;6278797;22;20001;-79
2021/10/15 02:02:58;;;;;;;1.83;1.63;;;;;;;3.28;100.00;97914.19;6252661;22;20086;-80
2021/10/15 02:05:24;;;;;;;1.48;1.25;;;;;;;3.02;100.00;97868.22;6252849;22;20409;-79
2021/10/15 02:07:50;;;;;;;0.63;0.63;;;;;;;3.19;100.00;97893.28;6278411;22;20435;-80
2021/10/15 02:10:16;;;;;;;1.80;1.02;;;;;;;3.31;100.00;97917.66;6278369;22;19999;-79
2021/10/15 02:12:42;;;;;;;0.80;0.75;;;;;;;3.02;100.00;97870.84;6252957;22;20431;-79
2021/10/15 02:15:10;;;;;;;1.42;1.35;;;;;;;3.28;100.00;97916.84;6278243;22;20551;-79
2021/10/15 02:17:37;;;;;;;1.50;1.40;;;;;;;3.27;100.00;97914.22;6278501;22;20067;-79
2021/10/15 02:20:05;;;;;;;2.67;1.75;;;;;;;3.21;100.00;97901.16;6252766;22;20005;-80
2021/10/15 02:22:31;;;;;;;3.50;2.08;;;;;;;3.09;100.00;97885.66;6278437;22;20358;-80
2021/10/15 02:24:56;;;;;;;15.27;1.55;;;;;;;3.08;100.00;97876.84;6252502;22;20003;-80
2021/10/15 02:27:22;;;;;;;1.90;1.75;;;;;;;3.24;100.00;97909.00;6252663;22;20336;-79
2021/10/15 02:29:48;;;;;;;2.47;2.22;;;;;;;3.28;100.00;97908.03;6252726;22;20034;-79
2021/10/15 02:32:13;;;;;;;1.38;1.33;;;;;;;3.27;100.00;97885.13;6252576;22;20007;-79
2021/10/15 02:34:39;;;;;;;2.70;1.42;;;;;;;3.27;100.00;97879.84;6252678;22;20014;-79
2021/10/15 02:37:04;;;;;;;2.60;0.90;;;;;;;3.17;100.00;97881.00;6252469;22;20011;-80
2021/10/15 02:39:30;;;;;;;4.68;1.90;;;;;;;3.23;100.00;97889.63;6252445;22;19999;-80
2021/10/15 02:42:11;;;;;;;1.15;1.13;;;;;;;3.25;100.00;97894.91;6252670;22;20037;-80
2021/10/15 02:44:36;;;;;;;0.93;0.93;;;;;;;3.24;100.00;97888.75;6252632;22;20018;-80
2021/10/15 02:47:03;;;;;;;1.38;1.35;;;;;;;3.26;100.00;97888.72;6252679;22;20350;-79
2021/10/15 02:49:29;;;;;;;1.33;1.23;;;;;;;3.19;100.00;97887.13;6252291;22;20007;-81
2021/10/15 02:51:54;;;;;;;1.30;1.20;;;;;;;3.35;100.00;97919.31;6278034;22;20434;-81
2021/10/15 02:54:20;;;;;;;1.52;1.33;;;;;;;2.99;100.00;97853.31;6252245;22;20017;-81
2021/10/15 02:56:45;;;;;;;3.08;1.92;;;;;;;2.76;100.00;97809.94;6246961;22;20023;-81
2021/10/15 02:59:11;;;;;;;3.65;2.08;;;;;;;3.36;100.00;97905.16;6247350;22;20004;-81
2021/10/15 03:01:36;;;;;;;1.98;1.77;;;;;;;3.18;100.00;97873.06;6272966;22;20379;-79
2021/10/15 03:04:02;;;;;;;2.00;1.33;;;;;;;3.26;100.00;97883.44;6247502;22;20495;-82
2021/10/15 03:06:30;;;;;;;0.47;0.43;;;;;;;3.23;100.00;97879.06;6247516;22;20015;-79
2021/10/15 03:08:55;;;;;;;0.55;0.55;;;;;;;3.05;100.00;97862.84;6247122;22;20487;-80
2021/10/15 03:11:21;;;;;;;1.10;0.95;;;;;;;3.16;100.00;97879.28;6272725;22;20028;-79
2021/10/15 03:13:47;;;;;;;0.38;0.38;;;;;;;2.92;100.00;97837.69;6246997;22;20419;-80
2021/10/15 03:16:12;;;;;;;1.08;1.08;;;;;;;3.01;100.00;97840.09;6247368;22;20461;-79
2021/10/15 03:19:11;;;;;;;0.75;0.75;;;;;;;3.28;100.00;97887.75;6273345;22;20411;-80
2021/10/15 03:21:36;;;;;;;0.75;0.75;;;;;;;3.05;100.00;97837.31;6247075;22;20008;-81
2021/10/15 03:24:04;;;;;;;1.10;1.10;;;;;;;3.29;100.00;97881.53;6247891;22;20027;-80
2021/10/15 03:26:30;;;;;;;1.23;0.65;;;;;;;3.17;100.00;97865.16;6247299;22;19996;-81
2021/10/15 03:28:55;;;;;;;2.50;1.80;;;;;;;3.26;100.00;97872.84;6247086;22;20003;-80
2021/10/15 03:31:28;;;;;;;7.25;2.67;;;;;;;3.34;100.00;97876.13;6247579;22;20008;-80
2021/10/15 03:33:54;;;;;;;10.80;4.10;;;;;;;3.24;100.00;97861.44;6246980;22;20004;-80
2021/10/15 03:36:19;;;;;;;3.30;1.70;;;;;;;3.18;100.00;97848.41;6272621;22;20010;-80
2021/10/15 03:38:45;;;;;;;2.08;1.98;;;;;;;3.35;100.00;97871.72;6246924;22;20003;-80
2021/10/15 03:41:10;;;;;;;1.60;1.48;;;;;;;3.22;100.00;97842.13;6247479;22;20000;-80
2021/10/15 03:43:36;;;;;;;0.45;0.45;;;;;;;3.31;100.00;97865.66;6247069;22;20011;-81
2021/10/15 03:46:01;;;;;;;0.75;0.75;;;;;;;3.32;100.00;97866.53;6272614;22;20509;-80
2021/10/15 03:48:27;;;;;;;2.40;1.90;;;;;;;3.17;100.00;97836.09;6246855;22;20505;-80
2021/10/15 03:50:53;;;;;;;5.25;2.65;;;;;;;3.21;100.00;97832.44;6272269;22;20003;-80
2021/10/15 03:53:18;;;;;;;1.52;1.42;;;;;;;3.12;100.00;97812.44;6247056;22;20007;-81
2021/10/15 03:55:44;;;;;;;1.65;1.55;;;;;;;3.36;100.00;97847.88;6242242;23;20068;-80
2021/10/15 03:58:10;;;;;;;4.65;1.10;;;;;;;3.26;100.00;97826.13;6243380;23;20091;-81
2021/10/15 04:00:35;;;;;;;2.15;1.95;;;;;;;3.51;100.00;97871.22;6244228;22;20337;-73
2021/10/15 04:03:01;;;;;;;3.08;2.67;;;;;;;3.26;100.00;97814.72;6244007;22;20062;-81
2021/10/15 04:05:26;;;;;;;0.85;0.60;;;;;;;3.48;100.00;97863.38;6218372;23;20057;-81
2021/10/15 04:07:52;;;;;;;4.13;2.20;;;;;;;3.35;100.00;97832.94;6218476;23;20379;-82
2021/10/15 04:10:18;;;;;;;1.80;1.70;;;;;;;3.47;100.00;97850.22;6218520;23;20004;-81
2021/10/15 04:12:43;;;;;;;2.38;2.17;;;;;;;3.34;100.00;97833.84;6244042;23;20471;-82
2021/10/15 04:15:11;;;;;;;3.05;1.23;;;;;;;3.26;100.00;97817.34;6218392;23;20028;-82
2021/10/15 04:17:36;;;;;;;3.03;2.47;;;;;;;3.37;100.00;97833.75;6218528;23;20042;-80
2021/10/15 04:20:03;;;;;;;4.18;3.25;;;;;;;3.35;100.00;97835.59;6218112;23;20004;-81
2021/10/15 04:22:29;;;;;;;5.97;2.53;;;;;;;3.25;100.00;97810.31;6243443;23;20000;-81
2021/10/15 04:24:55;;;;;;;6.10;2.10;;;;;;;3.54;100.00;97857.03;6218352;23;20012;-82
2021/10/15 04:27:20;;;;;;;2.40;2.03;;;;;;;3.48;100.00;97841.34;6218396;23;20083;-81
2021/10/15 04:29:46;;;;;;;1.75;1.65;;;;;;;3.45;100.00;97831.75;6218282;23;20004;-81
2021/10/15 04:32:13;;;;;;;1.48;1.38;;;;;;;3.39;100.00;97833.69;6218149;23;20110;-81
2021/10/15 04:34:38;;;;;;;3.00;2.60;;;;;;;3.37;100.00;97825.81;6218803;23;20014;-81
2021/10/15 04:37:04;;;;;;;2.42;2.22;;;;;;;3.47;100.00;97835.22;6218734;23;20401;-82
2021/10/15 04:39:29;;;;;;;7.20;3.78;;;;;;;3.29;100.00;97798.75;6244382;23;19996;-81
2021/10/15 04:41:57;;;;;;;11.02;5.20;;;;;;;3.55;100.00;97845.56;6218841;23;20015;-83
2021/10/15 04:44:23;;;;;;;2.45;1.80;;;;;;;3.35;100.00;97811.81;6218498;23;20363;-83
2021/10/15 04:46:48;;;;;;;1.23;0.98;;;;;;;3.41;100.00;97819.53;6243821;23;19996;-81
2021/10/15 04:49:14;;;;;;;1.52;1.15;;;;;;;3.42;100.00;97831.84;6242983;23;20000;-82
2021/10/15 04:51:39;;;;;;;2.33;2.13;;;;;;;3.31;100.00;97810.16;6217680;23;20008;-81
2021/10/15 04:54:05;;;;;;;2.97;2.42;;;;;;;3.39;100.00;97816.06;6243477;23;20011;-81
2021/10/15 04:56:31;;;;;;;1.77;1.63;;;;;;;3.43;100.00;97830.06;6244102;22;20077;-81
2021/10/15 04:58:56;;;;;;;2.97;2.75;;;;;;;3.70;100.00;97861.84;6248627;22;20003;-81
2021/10/15 05:01:22;;;;;;;2.65;2.45;;;;;;;3.59;100.00;97844.56;6248217;22;20012;-81
2021/10/15 05:03:48;;;;;;;3.53;2.38;;;;;;;3.55;100.00;97841.16;6274174;22;20504;-81
2021/10/15 05:06:14;;;;;;;4.88;3.60;;;;;;;3.60;100.00;97847.16;6247944;22;20102;-82
2021/10/15 05:08:49;;;;;;;3.03;2.72;;;;;;;3.64;100.00;97846.16;6248478;22;20015;-82
2021/10/15 05:11:15;;;;;;;2.55;2.35;;;;;;;3.64;100.00;97848.81;6250398;22;20404;-82
2021/10/15 05:13:40;;;;;;;3.47;2.25;;;;;;;3.70;100.00;97845.97;6275290;22;20068;-82
2021/10/15 05:16:06;;;;;;;4.72;3.92;;;;;;;3.50;100.00;97808.69;6247646;22;20439;-82
2021/10/15 05:18:32;;;;;;;4.28;2.28;;;;;;;3.81;100.00;97862.38;6248145;22;20036;-81
2021/10/15 05:20:57;;;;;;;4.70;3.88;;;;;;;3.74;100.00;97850.28;6248208;22;20013;-80
2021/10/15 05:23:23;;;;;;;4.20;3.60;;;;;;;3.73;100.00;97853.81;6273675;22;20003;-82
2021/10/15 05:25:48;;;;;;;2.75;2.53;;;;;;;3.69;100.00;97841.59;6248347;22;20003;-81
2021/10/15 05:28:14;;;;;;;3.42;2.30;;;;;;;3.59;100.00;97834.88;6248115;22;20011;-82
2021/10/15 05:30:39;;;;;;;5.15;3.03;;;;;;;3.66;100.00;97862.84;6248165;22;20007;-81
2021/10/15 05:33:07;;;;;;;3.25;2.88;;;;;;;3.53;100.00;97842.09;6248064;22;20083;-81
2021/10/15 05:35:32;;;;;;;3.90;3.47;;;;;;;3.47;100.00;97843.16;6273799;22;20003;-81
2021/10/15 05:37:58;;;;;;;2.55;2.35;;;;;;;3.62;100.00;97865.63;6274597;22;20010;-81
2021/10/15 05:40:24;;;;;;;3.20;2.88;;;;;;;3.46;100.00;97829.97;6249089;22;20087;-81
2021/10/15 05:42:50;;;;;;;7.38;4.55;;;;;;;3.64;100.00;97854.09;6248452;22;20007;-82
2021/10/15 05:45:16;;;;;;;5.38;4.28;;;;;;;3.49;100.00;97812.25;6273736;22;19999;-82
2021/10/15 05:47:42;;;;;;;2.65;2.40;;;;;;;3.84;100.00;97856.16;6247946;22;20091;-81
2021/10/15 05:50:09;;;;;;;2.42;2.22;;;;;;;3.76;100.00;97826.41;6248089;22;20008;-81
2021/10/15 05:52:44;;;;;;;2.20;1.85;;;;;;;3.59;100.00;97805.78;6247959;22;20038;-82
2021/10/15 06:00:22;;;;;;;2.40;2.20;;;;;;;3.81;100.00;97856.25;6274126;22;19995;-82
2021/10/15 06:02:48;;;;;;;1.25;1.17;;;;;;;3.26;100.00;97773.25;6247805;22;20157;-82
2021/10/15 06:15:46;;;;;;;3.45;2.72;;;;;;;3.83;100.00;97828.81;6273666;22;20026;-75
2021/10/15 06:18:18;;;;;;;2.05;1.77;;;;;;;3.94;100.00;97846.16;6248161;22;20024;-84
2021/10/15 06:20:44;;;;;;;2.90;2.33;;;;;;;4.01;100.00;97842.38;6270016;22;19999;-83
2021/10/15 06:23:10;;;;;;;4.43;3.05;;;;;;;3.97;100.00;97817.81;6244917;22;20008;-85
2021/10/15 06:25:36;;;;;;;4.00;2.90;;;;;;;4.05;100.00;97817.56;6270745;22;20011;-85
2021/10/15 06:28:03;;;;;;;7.68;5.00;;;;;;;4.04;100.00;97829.06;6271012;22;20121;-77
2021/10/15 06:30:30;;;;;;;16.27;5.05;;;;;;;4.00;100.00;97814.22;6270731;22;20030;-76
2021/10/15 06:32:56;;;;;;;3.00;2.78;;;;;;;4.04;100.00;97816.69;6270645;22;20434;-72
2021/10/15 06:35:22;;;;;;;4.18;3.60;;;;;;;4.25;100.00;97841.59;6271887;22;20010;-72
2021/10/15 06:37:47;;;;;;;6.70;3.08;;;;;;;4.27;100.00;97848.63;6270802;22;20002;-72
2021/10/15 06:40:13;;;;;;;11.73;4.43;;;;;;;4.15;100.00;97840.19;6270514;22;20029;-80
2021/10/15 06:42:39;;;;;;;2.10;1.90;;;;;;;4.10;100.00;97828.88;6245065;22;20004;-80
2021/10/15 06:45:05;;;;;;;3.65;3.05;;;;;;;4.12;100.00;97819.13;6244558;22;19999;-80
2021/10/15 06:47:31;;;;;;;4.88;3.00;;;;;;;4.19;100.00;97815.34;6270323;22;20490;-80
2021/10/15 06:49:57;;;;;;;5.15;4.25;;;;;;;4.30;100.00;97818.50;6270341;22;20042;-80
2021/10/15 06:52:23;;;;;;;4.35;2.38;;;;;;;4.36;100.00;97836.84;6244274;22;20096;-81
2021/10/15 06:54:49;;;;;;;3.53;2.58;;;;;;;3.84;100.00;97750.34;6274461;22;20022;-81
2021/10/15 06:57:15;;;;;;;2.90;2.63;;;;;;;4.37;100.00;97849.16;6274955;22;20003;-81
2021/10/15 06:59:41;;;;;;;3.97;1.70;;;;;;;4.33;100.00;97823.72;6249562;22;20453;-81
2021/10/15 07:02:07;;;;;;;2.20;1.92;;;;;;;4.53;100.00;97841.56;6249795;22;20049;-81
2021/10/15 07:04:32;;;;;;;5.55;2.58;;;;;;;4.30;100.00;97802.63;6250060;22;20011;-80
2021/10/15 07:06:58;;;;;;;4.85;2.50;;;;;;;4.48;100.00;97828.50;6249673;22;20033;-80
2021/10/15 07:09:24;;;;;;;10.45;2.22;;;;;;;4.40;100.00;97801.38;6249170;22;20007;-80
2021/10/15 07:11:50;;;;;;;0.82;0.80;;;;;;;4.59;100.00;97804.28;6275051;22;20003;-80
2021/10/15 07:14:16;;;;;;;0.85;0.85;;;;;;;4.58;100.00;97803.44;6275075;22;20003;-81
2021/10/15 07:16:42;;;;;;;2.20;1.33;;;;;;;4.63;100.00;97814.72;6249971;22;20007;-80
2021/10/15 07:19:08;;;;;;;1.20;1.13;;;;;;;4.75;100.00;97816.97;6275055;22;20025;-80
2021/10/15 07:21:34;;;;;;;1.98;1.88;;;;;;;4.59;100.00;97788.38;6275156;22;20514;-80
2021/10/15 07:23:59;;;;;;;2.33;2.13;;;;;;;4.72;100.00;97817.06;6249661;22;20082;-80
2021/10/15 07:26:25;;;;;;;1.75;1.65;;;;;;;4.86;100.00;97835.16;6275312;22;20007;-79
2021/10/15 07:28:51;;;;;;;2.90;2.70;;;;;;;4.73;100.00;97823.25;6274964;22;20006;-80
2021/10/15 07:31:17;;;;;;;5.80;2.97;;;;;;;4.56;100.00;97794.66;6249538;22;20053;-79
2021/10/15 07:33:42;;;;;;;6.20;4.47;;;;;;;4.21;100.00;97742.91;6275428;22;20113;-80
2021/10/15 07:36:08;;;;;;;7.75;3.88;;;;;;;4.61;100.00;97800.69;6249241;22;20010;-80
2021/10/15 07:38:34;;;;;;;10.40;5.28;;;;;;;4.73;100.00;97824.09;6249609;22;20105;-80
2021/10/15 07:41:00;;;;;;;7.03;4.90;;;;;;;4.68;100.00;97823.38;6251317;22;20439;-80
2021/10/15 07:43:25;;;;;;;7.32;4.75;;;;;;;4.49;100.00;97795.78;6276491;22;20118;-80
2021/10/15 07:45:51;;;;;;;8.38;5.30;;;;;;;4.54;100.00;97783.25;6251734;22;20007;-80
2021/10/15 07:48:16;;;;;;;7.85;4.30;;;;;;;4.75;100.00;97818.75;6251834;22;20387;-80
2021/10/15 07:50:42;;;;;;;13.60;5.82;;;;;;;4.60;100.00;97796.28;6251205;22;20009;-79
2021/10/15 07:53:08;;;;;;;5.07;4.57;;;;;;;4.57;100.00;97787.59;6251915;22;20028;-79
2021/10/15 07:55:34;;;;;;;6.38;4.75;;;;;;;4.77;100.00;97808.94;6276944;22;20031;-80
2021/10/15 07:57:59;;;;;;;5.10;3.83;;;;;;;4.58;100.00;97760.19;6251500;22;20332;-80
2021/10/15 08:00:25;;;;;;;6.78;5.55;;;;;;;4.34;100.00;97740.69;6251615;22;20031;-80
2021/10/15 08:02:52;;;;;;;5.30;4.63;;;;;;;4.56;100.00;97792.00;6251349;22;20004;-80
2021/10/15 08:05:19;;;;;;;8.20;4.70;;;;;;;4.68;100.00;97791.59;6252006;22;20064;-80
2021/10/15 08:07:44;;;;;;;9.00;5.25;;;;;;;4.87;100.00;97832.44;6251951;22;20076;-79
2021/10/15 08:10:10;;;;;;;2.20;2.05;;;;;;;4.90;100.00;97829.66;6277965;22;20434;-81
2021/10/15 08:12:37;;;;;;;2.15;1.98;;;;;;;4.74;100.00;97809.91;6251749;22;20093;-81
2021/10/15 08:15:05;;;;;;;5.07;2.05;;;;;;;4.78;100.00;97806.25;6252062;22;20029;-81
2021/10/15 08:17:31;;;;;;;1.10;1.10;;;;;;;4.66;100.00;97779.31;6252052;22;20007;-79
2021/10/15 08:19:56;;;;;;;3.40;2.80;;;;;;;4.86;100.00;97787.44;6251876;22;20068;-79
2021/10/15 08:22:22;;;;;;;3.72;2.65;;;;;;;5.08;100.00;97806.94;6251857;22;20037;-79
2021/10/15 08:24:47;;;;;;;2.13;1.88;;;;;;;4.70;100.00;97770.34;6277265;22;19999;-79
2021/10/15 08:27:13;;;;;;;1.77;1.67;;;;;;;4.92;100.00;97808.44;6277409;22;20006;-79
2021/10/15 08:29:39;;;;;;;2.28;2.10;;;;;;;4.96;100.00;97798.56;6251395;22;20011;-80
2021/10/15 08:32:06;;;;;;;2.65;2.15;;;;;;;5.20;100.00;97821.56;6252255;22;20067;-79
2021/10/15 08:34:32;;;;;;;3.47;2.78;;;;;;;5.03;100.00;97794.78;6277112;22;20031;-79
2021/10/15 08:36:57;;;;;;;3.88;1.83;;;;;;;5.27;100.00;97817.75;6252636;22;20065;-79
2021/10/15 08:39:27;;;;;;;2.75;2.03;;;;;;;5.21;100.00;97796.75;6278176;22;20447;-79
2021/10/15 08:41:53;;;;;;;3.63;2.75;;;;;;;5.23;100.00;97809.03;6278570;22;20003;-80
2021/10/15 08:44:19;;;;;;;2.70;2.50;;;;;;;5.00;100.00;97760.44;6251787;22;20026;-79
2021/10/15 08:46:45;;;;;;;6.43;4.20;;;;;;;5.20;100.00;97787.09;6276952;22;20022;-80
2021/10/15 08:49:11;;;;;;;10.40;5.18;;;;;;;5.53;100.00;97817.66;6251398;22;20022;-80
2021/10/15 08:51:40;;;;;;;3.17;2.85;;;;;;;5.56;100.00;97817.53;6251507;22;20447;-79
2021/10/15 08:54:06;;;;;;;6.07;4.03;;;;;;;5.55;100.00;97815.81;6252098;22;20011;-80
2021/10/15 08:56:33;;;;;;;7.78;4.82;;;;;;;5.12;100.00;97736.13;6251151;22;20505;-79
2021/10/15 08:59:07;;;;;;;5.50;4.22;;;;;;;5.33;100.00;97798.97;6251964;22;20011;-79
2021/10/15 09:01:42;;;;;;;4.90;4.45;;;;;;;5.27;100.00;97815.09;6252041;22;20458;-81
2021/10/15 09:04:07;;;;;;;6.75;5.00;;;;;;;5.11;100.00;97792.69;6251292;22;20003;-80
2021/10/15 09:06:40;;;;;;;1.95;1.85;;;;;;;5.21;100.00;97804.72;6251925;22;20006;-79
2021/10/15 09:09:07;;;;;;;3.25;2.45;;;;;;;4.76;100.00;97727.75;6276555;22;20014;-79
2021/10/15 09:11:36;;;;;;;3.75;3.45;;;;;;;5.30;100.00;97807.91;6251703;22;20014;-80
2021/10/15 09:14:08;;;;;;;5.15;3.53;;;;;;;5.38;100.00;97802.31;6276808;22;20003;-81
2021/10/15 09:16:53;;;;;;;4.63;3.17;;;;;;;5.48;100.00;97801.03;6276971;22;20031;-80
2021/10/15 09:19:32;;;;;;;4.43;2.75;;;;;;;5.46;100.00;97802.88;6251053;22;20003;-80
2021/10/15 09:22:18;;;;;;;8.70;3.50;;;;;;;5.50;100.00;97811.59;6276661;22;20038;-80
2021/10/15 09:24:56;;;;;;;3.85;2.30;;;;;;;5.28;100.00;97761.16;6251684;22;20419;-81
2021/10/15 09:27:26;;;;;;;2.20;1.83;;;;;;;5.36;100.00;97762.59;6276758;22;20060;-80
2021/10/15 09:30:03;;;;;;;1.67;1.50;;;;;;;5.65;100.00;97797.75;6276298;22;20011;-80
2021/10/15 09:32:32;;;;;;;2.00;1.80;;;;;;;5.61;100.00;97778.44;6304138;22;20013;-80
2021/10/15 09:34:59;;;;;;;2.20;2.03;;;;;;;5.62;100.00;97779.28;6250959;22;20007;-81
2021/10/15 09:37:30;;;;;;;8.38;4.63;;;;;;;5.59;100.00;97784.72;6250958;22;20010;-80
2021/10/15 09:40:12;;;;;;;4.50;2.50;;;;;;;5.42;100.00;97761.47;6250708;22;20004;-80
2021/10/15 09:42:48;;;;;;;5.93;2.78;;;;;;;5.73;100.00;97799.19;6250673;22;20053;-80
2021/10/15 09:45:22;;;;;;;1.88;1.73;;;;;;;5.75;100.00;97799.97;6276920;22;20027;-80
2021/10/15 09:47:55;;;;;;;7.80;2.38;;;;;;;5.82;100.00;97800.59;6251683;22;20050;-80
2021/10/15 09:50:25;;;;;;;4.90;3.45;;;;;;;5.85;100.00;97777.50;6250943;22;20015;-81
2021/10/15 09:52:55;;;;;;;2.05;1.60;;;;;;;5.97;100.00;97792.94;6251317;22;20355;-80
2021/10/15 09:55:38;;;;;;;0.45;0.45;;;;;;;5.99;100.00;97796.41;6250745;22;20464;-80
2021/10/15 09:58:17;;;;;;;3.28;1.45;;;;;;;6.04;100.00;97790.91;6250620;22;20013;-81
2021/10/15 10:00:43;;;;;;;1.30;1.20;;;;;;;5.97;100.00;97781.44;6277382;22;20074;-81
2021/10/15 10:03:09;;;;;;;2.72;1.83;;;;;;;5.94;100.00;97779.78;6276343;22;20060;-80
2021/10/15 10:05:35;;;;;;;3.70;1.98;;;;;;;6.02;100.00;97807.81;6251156;22;20027;-80
2021/10/15 10:08:01;;;;;;;3.83;3.03;;;;;;;5.96;100.00;97774.44;6251114;22;20025;-80
2021/10/15 10:10:32;;;;;;;2.88;2.10;;;;;;;5.94;100.00;97793.06;6251024;22;20007;-80
2021/10/15 10:12:58;;;;;;;2.30;2.10;;;;;;;5.73;100.00;97770.00;6276752;22;20396;-80
2021/10/15 10:15:26;;;;;;;1.38;1.27;;;;;;;5.74;100.00;97795.63;6251015;22;20006;-80
2021/10/15 10:18:04;;;;;;;4.35;2.28;;;;;;;5.76;100.00;97799.06;6251555;22;20010;-80
2021/10/15 10:20:32;;;;;;;6.35;3.05;;;;;;;5.88;100.00;97792.44;6304915;22;19995;-81
2021/10/15 10:23:08;;;;;;;6.80;3.25;;;;;;;5.70;100.00;97770.09;6278210;22;19999;-81
2021/10/15 10:25:35;;;;;;;8.50;5.03;;;;;;;5.78;100.00;97770.66;6252923;22;20495;-81
2021/10/15 10:28:21;;;;;;;8.93;4.03;;;;;;;5.84;100.00;97773.09;6252967;22;20086;-80
2021/10/15 10:30:52;;;;;;;3.13;2.83;;;;;;;5.81;100.00;97770.56;6252681;22;19999;-80
2021/10/15 10:33:19;;;;;;;3.03;2.72;;;;;;;5.80;100.00;97741.41;6252479;22;20482;-81
2021/10/15 10:35:45;;;;;;;5.22;2.50;;;;;;;5.86;100.00;97768.63;6252583;22;20068;-81
2021/10/15 10:38:20;;;;;;;3.35;1.80;;;;;;;6.07;100.00;97773.97;6252486;22;20068;-81
2021/10/15 10:41:01;;;;;;;1.67;1.58;;;;;;;6.07;100.00;97763.34;6305621;22;20007;-80
2021/10/15 10:43:27;;;;;;;3.03;1.98;;;;;;;6.29;100.00;97764.22;6305268;22;20083;-80
2021/10/15 10:46:08;;;;;;;4.13;2.47;;;;;;;6.30;100.00;97764.16;6252683;22;20003;-80
2021/10/15 10:48:46;;;;;;;1.38;1.15;;;;;;;6.45;100.00;97757.34;6278438;22;20392;-80
2021/10/15 10:51:15;;;;;;;5.28;3.63;;;;;;;6.50;100.00;97758.00;6278467;22;20003;-80
2021/10/15 10:54:04;;;;;;;4.30;1.88;;;;;;;6.49;100.00;97758.94;6278498;22;20037;-80
2021/10/15 10:56:38;;;;;;;10.70;2.80;;;;;;;6.48;100.00;97750.09;6281370;22;20015;-81
2021/10/15 10:59:16;;;;;;;3.60;2.85;;;;;;;6.42;100.00;97749.50;6278074;22;20006;-80
2021/10/15 11:01:46;;;;;;;3.95;3.33;;;;;;;6.41;100.00;97723.84;6278361;22;20011;-80
2021/10/15 11:04:33;;;;;;;6.40;4.57;;;;;;;6.56;100.00;97736.47;6252668;22;20010;-81
2021/10/15 11:07:03;;;;;;;5.22;3.47;;;;;;;6.64;100.00;97738.81;6278016;22;20458;-80
2021/10/15 11:09:35;;;;;;;4.28;3.03;;;;;;;6.70;100.00;97741.22;6277957;22;20003;-80
2021/10/15 11:12:01;;;;;;;3.00;2.78;;;;;;;6.47;100.00;97707.66;6305481;22;20507;-81
2021/10/15 11:14:55;;;;;;;4.28;2.25;;;;;;;6.62;100.00;97722.94;6252224;22;20041;-80
2021/10/15 11:17:34;;;;;;;4.32;3.00;;;;;;;6.58;100.00;97701.88;6301632;22;20007;-80
2021/10/15 11:20:20;;;;;;;5.05;2.47;;;;;;;6.72;100.00;97723.38;6278233;22;20098;-80
2021/10/15 11:23:03;;;;;;;3.03;2.72;;;;;;;6.64;100.00;97726.41;6252084;22;20011;-80
2021/10/15 11:25:41;;;;;;;1.95;1.83;;;;;;;6.73;100.00;97718.03;6277828;22;19999;-80
2021/10/15 11:28:09;;;;;;;3.88;3.47;;;;;;;6.78;100.00;97716.00;6278071;22;20060;-80
2021/10/15 11:30:38;;;;;;;4.95;2.83;;;;;;;6.74;100.00;97692.28;6277871;22;20164;-80
2021/10/15 11:33:06;;;;;;;5.90;4.57;;;;;;;6.85;100.00;97695.34;6252410;22;20003;-80
2021/10/15 11:35:35;;;;;;;11.02;4.63;;;;;;;6.86;100.00;97671.34;6252100;22;20397;-80
2021/10/15 11:38:22;;;;;;;14.95;5.75;;;;;;;7.02;100.00;97668.84;6278059;22;20026;-80
2021/10/15 11:40:51;;;;;;;5.28;3.47;;;;;;;7.03;100.00;97660.81;6277924;22;20346;-80
2021/10/15 11:43:24;;;;;;;5.57;4.20;;;;;;;7.13;100.00;97685.19;6305239;22;19999;-81
2021/10/15 11:46:01;;;;;;;3.72;2.88;;;;;;;7.11;100.00;97675.56;6252661;22;20003;-81
2021/10/15 11:48:30;;;;;;;6.72;3.80;;;;;;;7.01;100.00;97673.28;6252286;22;20006;-80
2021/10/15 11:51:05;;;;;;;7.07;3.80;;;;;;;7.07;100.00;97662.38;6278042;22;20039;-80
2021/10/15 11:53:37;;;;;;;6.93;4.97;;;;;;;7.23;100.00;97659.88;6252200;22;20355;-81